Time;durP1;ratioP1;P1;durP2;ratioP2;P2;SDS_P1;SDS_P2;PMS_P1;PMS_P2;Temp;Humidity;BMP_temperature;BMP_pressure;BME280_temperature;BME280_humidity;BME280_pressure;Samples;Min_cycle;Max_cycle;Signal;HPM_P1;HPM_P2
2023/08/26 00:00:30;;;;;;;5.07;4.18;;;16.30;99.90;;;;;;5002797;28;19929;-75
2023/08/26 00:02:56;;;;;;;4.95;4.45;;;16.50;99.90;;;;;;4968220;28;20141;-75
2023/08/26 00:05:22;;;;;;;5.78;4.40;;;16.30;99.90;;;;;;4967679;28;20045;-75
2023/08/26 00:07:47;;;;;;;;;;;16.20;99.90;;;;;;4954360;28;20046;-75
2023/08/26 00:10:13;;;;;;;4.60;3.60;;;16.20;99.90;;;;;;4968747;28;19945;-75
2023/08/26 00:12:39;;;;;;;4.90;4.05;;;16.20;99.90;;;;;;4970842;28;20050;-75
2023/08/26 00:15:05;;;;;;;5.03;4.45;;;16.10;99.90;;;;;;4967954;28;20511;-74
2023/08/26 00:17:32;;;;;;;4.53;4.13;;;16.20;99.90;;;;;;4994333;28;20051;-74
2023/08/26 00:19:58;;;;;;;5.90;5.10;;;16.20;99.90;;;;;;4965731;28;20043;-74
2023/08/26 00:22:24;;;;;;;;;;;16.10;99.90;;;;;;4968816;28;20506;-74
2023/08/26 00:24:51;;;;;;;6.18;4.90;;;16.00;99.90;;;;;;4989630;28;19933;-74
2023/08/26 00:27:17;;;;;;;5.22;4.72;;;16.10;99.90;;;;;;4996976;28;20054;-75
2023/08/26 00:29:42;;;;;;;5.30;4.40;;;15.90;99.90;;;;;;4972524;28;20475;-75
2023/08/26 00:32:08;;;;;;;;;;;16.10;99.90;;;;;;4973798;28;20053;-75
2023/08/26 00:34:34;;;;;;;3.38;3.08;;;16.10;99.90;;;;;;4956240;28;20414;-75
2023/08/26 00:37:00;;;;;;;3.75;3.28;;;16.10;99.90;;;;;;4955847;28;20046;-75
2023/08/26 00:39:25;;;;;;;3.63;3.33;;;16.10;99.90;;;;;;4981388;28;20050;-75
2023/08/26 00:41:51;;;;;;;4.18;3.40;;;15.90;99.90;;;;;;4956667;28;20038;-75
2023/08/26 00:44:17;;;;;;;2.80;2.45;;;16.10;99.90;;;;;;4989764;28;20081;-75
2023/08/26 00:46:42;;;;;;;4.00;2.92;;;15.90;99.90;;;;;;4968728;28;20427;-75
2023/08/26 00:49:08;;;;;;;3.58;3.08;;;15.80;99.90;;;;;;4996281;28;20093;-75
2023/08/26 00:51:35;;;;;;;3.47;3.13;;;15.90;99.90;;;;;;4971481;28;20050;-75
2023/08/26 00:54:02;;;;;;;3.53;3.22;;;15.90;99.90;;;;;;4962504;28;20494;-75
2023/08/26 00:56:28;;;;;;;3.58;3.28;;;15.90;99.90;;;;;;4955996;28;20046;-74
2023/08/26 00:58:53;;;;;;;5.43;4.15;;;15.90;99.90;;;;;;4976527;28;20101;-74
2023/08/26 01:01:19;;;;;;;;;;;15.80;99.90;;;;;;4973856;28;20047;-74
2023/08/26 01:03:45;;;;;;;3.92;3.53;;;15.70;99.90;;;;;;4989204;28;19926;-74
2023/08/26 01:06:11;;;;;;;3.42;3.13;;;15.60;99.90;;;;;;4970105;28;20043;-75
2023/08/26 01:08:37;;;;;;;3.95;3.28;;;15.60;99.90;;;;;;4944121;28;20407;-75
2023/08/26 01:11:16;;;;;;;4.78;3.53;;;15.70;99.90;;;;;;4970101;28;20170;-75
2023/08/26 01:14:08;;;;;;;4.00;3.40;;;15.50;99.90;;;;;;4966275;28;20039;-75
2023/08/26 01:16:35;;;;;;;3.58;3.10;;;15.60;99.90;;;;;;4966920;28;20074;-75
2023/08/26 01:19:02;;;;;;;3.60;3.13;;;15.60;99.90;;;;;;4987660;28;20042;-75
2023/08/26 01:21:40;;;;;;;3.50;2.85;;;15.50;99.90;;;;;;4972985;28;20042;-75
2023/08/26 01:24:07;;;;;;;4.07;2.88;;;15.40;99.90;;;;;;4966087;28;20043;-75
2023/08/26 01:26:32;;;;;;;2.40;2.17;;;15.40;99.90;;;;;;4949930;28;20391;-75
2023/08/26 01:28:58;;;;;;;3.13;2.50;;;15.50;99.90;;;;;;4972054;28;20053;-75
2023/08/26 01:31:27;;;;;;;2.58;2.38;;;15.30;99.90;;;;;;4978953;28;20085;-75
2023/08/26 01:34:02;;;;;;;2.60;2.40;;;15.30;99.90;;;;;;4966915;28;20043;-75
2023/08/26 01:36:34;;;;;;;2.90;2.53;;;15.40;99.90;;;;;;4969528;28;20079;-75
2023/08/26 01:39:01;;;;;;;2.78;2.30;;;15.30;99.90;;;;;;4969864;28;20145;-75
2023/08/26 01:41:29;;;;;;;2.60;2.40;;;15.40;99.90;;;;;;4968135;28;20054;-75
2023/08/26 01:43:56;;;;;;;3.13;2.50;;;15.20;99.90;;;;;;4963060;28;20082;-75
2023/08/26 01:46:36;;;;;;;2.80;2.30;;;15.10;99.90;;;;;;4971583;28;20378;-75
2023/08/26 01:49:03;;;;;;;2.70;2.42;;;15.20;99.90;;;;;;4962183;28;20505;-75
2023/08/26 01:51:30;;;;;;;3.50;2.83;;;15.10;99.90;;;;;;4970118;28;20053;-75
2023/08/26 01:53:56;;;;;;;3.63;2.58;;;15.10;99.90;;;;;;4960155;28;20042;-75
2023/08/26 01:56:21;;;;;;;2.60;2.40;;;15.00;99.90;;;;;;4969792;28;20130;-75
2023/08/26 01:58:47;;;;;;;2.90;2.50;;;15.10;99.90;;;;;;4952103;28;20050;-75
2023/08/26 02:01:13;;;;;;;2.47;2.28;;;15.00;99.90;;;;;;4964645;28;20043;-75
2023/08/26 02:03:38;;;;;;;2.80;2.28;;;14.90;99.90;;;;;;4949383;29;20043;-75
2023/08/26 02:06:04;;;;;;;2.40;2.20;;;14.90;99.90;;;;;;4965436;28;20031;-75
2023/08/26 02:08:29;;;;;;;2.63;2.05;;;14.80;99.90;;;;;;4967596;28;20043;-75
2023/08/26 02:10:56;;;;;;;2.63;2.10;;;14.80;99.90;;;;;;4961469;28;20039;-76
2023/08/26 02:13:24;;;;;;;2.65;2.08;;;14.80;99.90;;;;;;4999011;28;20050;-75
2023/08/26 02:15:50;;;;;;;2.20;2.00;;;14.70;99.90;;;;;;4966419;28;20565;-76
2023/08/26 02:18:16;;;;;;;2.35;2.13;;;14.70;99.90;;;;;;4946550;28;20042;-75
2023/08/26 02:20:42;;;;;;;;;;;14.70;99.90;;;;;;4999515;28;20546;-75
2023/08/26 02:23:11;;;;;;;2.60;2.20;;;14.70;99.90;;;;;;4955708;28;20069;-75
2023/08/26 02:25:39;;;;;;;2.58;2.13;;;14.70;99.90;;;;;;4966164;28;20521;-75
2023/08/26 02:28:05;;;;;;;2.33;2.10;;;14.40;99.90;;;;;;5003064;28;20053;-75
2023/08/26 02:30:31;;;;;;;2.35;2.15;;;14.60;99.90;;;;;;4970373;28;20439;-75
2023/08/26 02:32:57;;;;;;;2.38;2.17;;;14.40;99.90;;;;;;4955737;28;20081;-75
2023/08/26 02:35:23;;;;;;;2.17;1.98;;;14.40;99.90;;;;;;4968350;28;20384;-75
2023/08/26 02:37:48;;;;;;;;;;;14.40;99.90;;;;;;4965112;28;20081;-75
2023/08/26 02:40:14;;;;;;;4.00;2.30;;;14.20;99.90;;;;;;4998994;28;20040;-75
2023/08/26 02:42:40;;;;;;;1.92;1.73;;;14.20;99.90;;;;;;4970729;28;20035;-76
2023/08/26 02:45:06;;;;;;;2.33;1.80;;;14.20;99.90;;;;;;4971478;28;20521;-76
2023/08/26 02:47:32;;;;;;;2.08;1.73;;;14.10;99.90;;;;;;4969748;28;20094;-76
2023/08/26 02:49:57;;;;;;;2.95;2.10;;;14.10;99.90;;;;;;4955127;28;20085;-75
2023/08/26 02:52:23;;;;;;;3.80;2.42;;;14.20;99.90;;;;;;4954995;28;20117;-75
2023/08/26 02:54:49;;;;;;;5.95;3.22;;;14.00;99.90;;;;;;4970810;28;20049;-75
2023/08/26 02:57:14;;;;;;;2.95;2.72;;;14.00;99.90;;;;;;4970307;28;20146;-75
2023/08/26 02:59:40;;;;;;;3.55;2.70;;;14.00;99.90;;;;;;4971135;28;20052;-75
2023/08/26 03:02:07;;;;;;;3.53;2.53;;;14.10;99.90;;;;;;4928709;29;20038;-75
2023/08/26 03:04:35;;;;;;;3.92;2.83;;;14.00;99.90;;;;;;4969680;28;20042;-75
2023/08/26 03:07:01;;;;;;;3.05;2.75;;;13.90;99.90;;;;;;4969383;28;20045;-76
2023/08/26 03:09:28;;;;;;;2.63;2.42;;;14.00;99.90;;;;;;4954756;28;20397;-76
2023/08/26 03:11:55;;;;;;;3.60;3.22;;;14.00;99.90;;;;;;4981667;28;20046;-76
2023/08/26 03:14:21;;;;;;;3.13;2.58;;;13.90;99.90;;;;;;4941526;28;20046;-75
2023/08/26 03:16:47;;;;;;;2.42;1.95;;;13.80;99.90;;;;;;4968509;28;20039;-76
2023/08/26 03:19:13;;;;;;;3.45;2.22;;;13.90;99.90;;;;;;4972041;28;20168;-74
2023/08/26 03:21:38;;;;;;;3.45;2.45;;;13.80;99.90;;;;;;4965493;28;20494;-74
2023/08/26 03:24:05;;;;;;;2.90;2.38;;;13.80;99.90;;;;;;4993742;28;20395;-76
2023/08/26 03:26:30;;;;;;;2.50;2.30;;;13.90;99.90;;;;;;4965700;28;20039;-74
2023/08/26 03:28:56;;;;;;;1.92;1.73;;;13.80;99.90;;;;;;4953311;28;20054;-75
2023/08/26 03:31:22;;;;;;;2.47;2.15;;;13.80;99.90;;;;;;4954319;28;20046;-75
2023/08/26 03:33:47;;;;;;;2.72;2.10;;;13.80;99.90;;;;;;4966581;28;20035;-75
2023/08/26 03:36:13;;;;;;;2.13;1.92;;;13.80;99.90;;;;;;4967090;28;20046;-75
2023/08/26 03:38:39;;;;;;;1.70;1.60;;;13.80;99.90;;;;;;5000044;28;20497;-75
2023/08/26 03:41:05;;;;;;;2.10;1.75;;;13.80;99.90;;;;;;4960993;28;20558;-75
2023/08/26 03:43:32;;;;;;;2.45;1.77;;;13.70;99.90;;;;;;4966347;28;20053;-75
2023/08/26 03:45:57;;;;;;;2.30;1.63;;;13.70;99.90;;;;;;4970477;28;20456;-75
2023/08/26 03:48:23;;;;;;;2.47;1.70;;;13.70;99.90;;;;;;4951661;28;20055;-75
2023/08/26 03:50:53;;;;;;;2.55;2.10;;;13.60;99.90;;;;;;4953245;28;20046;-75
2023/08/26 03:53:19;;;;;;;2.78;2.08;;;13.60;99.90;;;;;;4950508;28;20050;-75
2023/08/26 03:55:45;;;;;;;2.00;1.80;;;13.60;99.90;;;;;;4955733;28;20418;-75
2023/08/26 03:58:11;;;;;;;2.10;1.83;;;13.60;99.90;;;;;;4970325;28;20047;-75
2023/08/26 04:00:37;;;;;;;2.55;2.03;;;13.60;99.90;;;;;;4958445;28;20039;-75
2023/08/26 04:03:07;;;;;;;1.90;1.65;;;13.50;99.90;;;;;;4954078;28;20061;-75
2023/08/26 04:05:33;;;;;;;2.70;1.63;;;13.50;99.90;;;;;;4985611;28;20133;-75
2023/08/26 04:08:00;;;;;;;1.90;1.60;;;13.50;99.90;;;;;;4969627;28;20035;-75
2023/08/26 04:10:26;;;;;;;1.63;1.40;;;13.60;99.90;;;;;;4969987;28;20466;-75
2023/08/26 04:12:52;;;;;;;1.85;1.50;;;13.50;99.90;;;;;;4968109;28;20034;-75
2023/08/26 04:15:18;;;;;;;1.85;1.50;;;13.60;99.90;;;;;;4970113;28;20490;-75
2023/08/26 04:17:44;;;;;;;1.88;1.60;;;13.50;99.90;;;;;;4953774;28;20089;-75
2023/08/26 04:20:11;;;;;;;1.90;1.58;;;13.60;99.90;;;;;;4953442;28;20070;-75
2023/08/26 04:22:37;;;;;;;1.52;1.42;;;13.60;99.90;;;;;;4969785;28;20112;-75
2023/08/26 04:25:05;;;;;;;1.65;1.52;;;13.60;99.90;;;;;;4969556;28;20051;-75
2023/08/26 04:27:33;;;;;;;1.77;1.60;;;13.60;99.90;;;;;;4963151;28;20054;-75
2023/08/26 04:29:59;;;;;;;1.77;1.60;;;13.70;99.90;;;;;;5001116;28;20097;-75
2023/08/26 04:32:26;;;;;;;1.92;1.30;;;13.60;99.90;;;;;;4965066;28;20058;-76
2023/08/26 04:34:51;;;;;;;;;;;13.60;99.90;;;;;;4983623;28;20403;-75
2023/08/26 04:37:20;;;;;;;1.60;1.40;;;13.70;99.90;;;;;;5001759;28;19922;-75
2023/08/26 04:39:49;;;;;;;2.08;1.33;;;13.70;99.90;;;;;;4968979;28;20050;-75
2023/08/26 04:42:15;;;;;;;1.40;1.30;;;13.80;99.90;;;;;;4960276;28;20047;-75
2023/08/26 04:44:41;;;;;;;1.42;1.33;;;13.70;99.90;;;;;;4945064;28;20054;-75
2023/08/26 04:47:07;;;;;;;1.38;1.23;;;13.80;99.90;;;;;;4982834;28;20043;-75
2023/08/26 04:49:32;;;;;;;1.48;1.38;;;13.90;99.90;;;;;;4969168;28;20059;-75
2023/08/26 04:51:59;;;;;;;1.67;1.30;;;13.80;99.90;;;;;;4968677;28;20486;-75
2023/08/26 04:54:25;;;;;;;1.70;1.30;;;13.90;99.90;;;;;;4953567;28;20058;-75
2023/08/26 04:56:51;;;;;;;1.13;1.02;;;13.90;99.90;;;;;;4937075;28;20055;-75
2023/08/26 04:59:16;;;;;;;1.40;1.30;;;13.90;99.90;;;;;;4986384;28;20054;-75
2023/08/26 05:01:42;;;;;;;4.97;1.60;;;14.00;99.90;;;;;;4973624;28;20042;-75
2023/08/26 05:04:08;;;;;;;2.13;1.38;;;14.10;99.90;;;;;;4972688;28;20486;-75
2023/08/26 05:06:35;;;;;;;1.40;1.27;;;14.10;99.90;;;;;;4972299;28;20075;-75
2023/08/26 05:09:01;;;;;;;1.50;1.30;;;14.10;99.90;;;;;;4963591;28;20051;-75
2023/08/26 05:11:27;;;;;;;1.45;1.23;;;14.10;99.90;;;;;;4960822;28;20513;-75
2023/08/26 05:13:52;;;;;;;1.50;1.23;;;14.10;99.90;;;;;;4957261;28;20137;-75
2023/08/26 05:16:18;;;;;;;1.50;1.40;;;14.10;99.90;;;;;;4948542;28;20055;-75
2023/08/26 05:18:44;;;;;;;1.50;1.40;;;14.20;99.90;;;;;;4962982;28;20051;-76
2023/08/26 05:21:10;;;;;;;1.27;1.17;;;14.30;99.90;;;;;;4968701;28;20487;-77
2023/08/26 05:23:36;;;;;;;1.80;1.50;;;14.20;99.90;;;;;;4956920;28;20047;-76
2023/08/26 05:26:02;;;;;;;1.50;1.30;;;14.30;99.90;;;;;;4967651;28;20140;-75
2023/08/26 05:28:27;;;;;;;2.40;1.52;;;14.20;99.90;;;;;;4973068;28;20058;-76
2023/08/26 05:30:53;;;;;;;1.60;1.50;;;14.20;99.90;;;;;;4965273;28;20051;-76
2023/08/26 05:33:19;;;;;;;1.85;1.60;;;14.20;99.90;;;;;;4948309;29;20047;-76
2023/08/26 05:35:44;;;;;;;1.77;1.60;;;14.20;99.90;;;;;;4966185;28;20046;-76
2023/08/26 05:38:10;;;;;;;1.70;1.60;;;14.20;99.90;;;;;;4968431;28;20470;-76
2023/08/26 05:40:36;;;;;;;1.77;1.50;;;14.40;99.90;;;;;;4955683;28;20395;-76
2023/08/26 05:43:01;;;;;;;2.10;1.60;;;14.30;99.90;;;;;;4970694;28;20047;-76
2023/08/26 05:45:27;;;;;;;1.55;1.45;;;14.30;99.90;;;;;;4956170;28;20070;-76
2023/08/26 05:47:53;;;;;;;2.00;1.60;;;14.30;99.90;;;;;;4950628;29;20054;-76
2023/08/26 05:50:19;;;;;;;2.63;1.35;;;14.30;99.90;;;;;;4970289;28;20085;-76
2023/08/26 05:52:45;;;;;;;;;;;14.40;99.90;;;;;;4972075;28;20038;-76
2023/08/26 05:55:11;;;;;;;1.60;1.50;;;14.40;99.90;;;;;;4966464;28;19928;-76
2023/08/26 05:57:37;;;;;;;;;;;14.40;99.90;;;;;;4967351;28;20054;-76
2023/08/26 06:00:05;;;;;;;1.63;1.40;;;14.40;99.90;;;;;;4967258;28;20045;-76
2023/08/26 06:02:31;;;;;;;1.55;1.20;;;14.50;99.90;;;;;;4971280;28;20394;-76
2023/08/26 06:04:57;;;;;;;1.40;1.30;;;14.40;99.90;;;;;;4970674;28;20039;-76
2023/08/26 06:07:22;;;;;;;1.80;1.40;;;14.50;99.90;;;;;;4969516;28;20042;-76
2023/08/26 06:09:48;;;;;;;1.30;1.20;;;14.50;99.90;;;;;;4971634;28;20047;-76
2023/08/26 06:12:13;;;;;;;1.40;1.30;;;14.60;99.90;;;;;;4971358;28;20046;-76
2023/08/26 06:14:39;;;;;;;1.65;1.40;;;14.60;99.90;;;;;;4954738;28;20097;-75
2023/08/26 06:17:05;;;;;;;1.52;1.42;;;14.50;99.90;;;;;;4936008;29;20514;-75
2023/08/26 06:19:30;;;;;;;1.65;1.48;;;14.70;99.90;;;;;;4999905;28;20089;-76
2023/08/26 06:21:56;;;;;;;1.58;1.30;;;14.60;99.90;;;;;;4969369;28;20046;-76
2023/08/26 06:24:22;;;;;;;1.42;1.33;;;14.60;99.90;;;;;;4970275;28;20117;-76
2023/08/26 06:26:47;;;;;;;1.38;1.27;;;14.50;99.90;;;;;;4955935;28;20039;-76
2023/08/26 06:29:15;;;;;;;1.60;1.50;;;14.50;99.90;;;;;;4955636;28;20046;-77
2023/08/26 06:31:42;;;;;;;1.73;1.50;;;14.60;99.90;;;;;;4972222;28;20126;-77
2023/08/26 06:34:07;;;;;;;;;;;14.70;99.90;;;;;;4973572;28;20157;-77
2023/08/26 06:36:33;;;;;;;1.70;1.42;;;14.50;99.90;;;;;;4972099;28;20012;-76
2023/08/26 06:38:59;;;;;;;1.65;1.23;;;14.70;99.90;;;;;;4977018;28;20149;-75
2023/08/26 06:41:25;;;;;;;1.35;1.13;;;14.60;99.90;;;;;;4959661;28;20039;-77
2023/08/26 06:43:50;;;;;;;1.35;1.25;;;14.60;99.90;;;;;;4956737;28;20402;-76
2023/08/26 06:46:16;;;;;;;1.45;1.13;;;14.70;99.90;;;;;;4957980;28;20055;-77
2023/08/26 06:48:42;;;;;;;1.38;1.20;;;14.60;99.90;;;;;;4970707;28;20114;-76
2023/08/26 06:51:08;;;;;;;1.58;1.38;;;14.70;99.90;;;;;;4971822;28;20062;-77
2023/08/26 06:53:33;;;;;;;1.20;1.10;;;14.70;99.90;;;;;;4971682;28;20038;-77
2023/08/26 06:55:59;;;;;;;1.17;1.08;;;14.70;99.90;;;;;;4963089;28;20043;-78
2023/08/26 06:58:25;;;;;;;1.17;1.08;;;14.70;99.90;;;;;;4966537;28;20054;-77
2023/08/26 07:00:52;;;;;;;1.20;1.10;;;14.60;99.90;;;;;;4968006;28;20036;-77
2023/08/26 07:03:18;;;;;;;1.30;1.10;;;14.60;99.90;;;;;;4962597;28;20102;-78
2023/08/26 07:05:46;;;;;;;1.20;0.90;;;14.60;99.90;;;;;;4973586;28;20050;-77
2023/08/26 07:08:13;;;;;;;1.35;0.90;;;14.70;99.90;;;;;;4971406;28;20050;-76
2023/08/26 07:10:38;;;;;;;1.40;1.00;;;14.70;99.90;;;;;;4957871;28;20043;-76
2023/08/26 07:13:04;;;;;;;1.00;0.90;;;14.80;99.90;;;;;;4967722;28;20446;-76
2023/08/26 07:15:30;;;;;;;;;;;14.90;99.90;;;;;;4947455;28;20077;-76
2023/08/26 07:17:56;;;;;;;0.90;0.90;;;15.00;99.90;;;;;;4956646;28;19961;-76
2023/08/26 07:20:21;;;;;;;1.92;1.42;;;15.10;99.90;;;;;;4961200;28;20130;-76
2023/08/26 07:22:48;;;;;;;1.20;1.10;;;15.20;99.90;;;;;;4957133;28;20047;-76
2023/08/26 07:25:13;;;;;;;2.00;1.40;;;15.20;99.90;;;;;;5001911;28;20406;-76
2023/08/26 07:27:40;;;;;;;1.48;1.30;;;15.30;99.90;;;;;;4971889;28;20046;-76
2023/08/26 07:30:07;;;;;;;1.95;1.30;;;15.30;99.90;;;;;;4925679;28;20047;-76
2023/08/26 07:32:32;;;;;;;1.88;1.50;;;15.40;99.90;;;;;;4968981;28;20053;-76
2023/08/26 07:34:58;;;;;;;2.00;1.80;;;15.50;99.90;;;;;;4950331;28;20046;-76
2023/08/26 07:37:24;;;;;;;2.90;2.60;;;15.70;99.90;;;;;;4963180;28;20047;-76
2023/08/26 07:39:50;;;;;;;2.88;2.63;;;15.90;99.90;;;;;;4967019;28;20038;-76
2023/08/26 07:42:17;;;;;;;5.70;5.03;;;16.20;99.90;;;;;;4958176;28;20092;-76
2023/08/26 07:44:42;;;;;;;5.93;5.22;;;16.30;99.90;;;;;;4970849;28;20034;-76
2023/08/26 07:47:08;;;;;;;5.90;5.30;;;16.50;99.90;;;;;;4959117;28;20054;-75
2023/08/26 07:49:34;;;;;;;7.32;6.18;;;16.70;99.90;;;;;;4956841;28;20418;-75
2023/08/26 07:51:59;;;;;;;;;;;16.80;99.90;;;;;;4970786;28;20624;-75
2023/08/26 07:54:25;;;;;;;7.85;7.03;;;16.70;99.90;;;;;;4951721;28;19926;-75
2023/08/26 07:56:51;;;;;;;;;;;16.60;99.90;;;;;;4993625;28;20043;-75
2023/08/26 07:59:16;;;;;;;7.05;5.72;;;16.70;99.90;;;;;;4969231;28;19926;-75
2023/08/26 08:01:43;;;;;;;7.57;6.70;;;16.70;99.90;;;;;;4968996;28;20133;-75
2023/08/26 08:04:08;;;;;;;7.25;6.55;;;16.70;99.90;;;;;;4969624;28;20125;-74
2023/08/26 08:06:34;;;;;;;;;;;16.70;99.90;;;;;;4970171;28;20039;-75
2023/08/26 08:09:00;;;;;;;11.13;10.02;;;16.70;99.90;;;;;;4950808;28;20382;-75
2023/08/26 08:11:25;;;;;;;9.02;8.13;;;16.60;99.90;;;;;;4969973;28;20118;-75
2023/08/26 08:13:51;;;;;;;;;;;16.80;99.90;;;;;;4951387;28;20043;-75
2023/08/26 08:16:17;;;;;;;10.15;9.15;;;17.00;99.90;;;;;;4999264;28;19922;-75
2023/08/26 08:18:42;;;;;;;11.30;10.23;;;17.10;99.90;;;;;;4966447;28;20046;-74
2023/08/26 08:21:09;;;;;;;;;;;17.20;99.90;;;;;;4955641;28;20125;-75
2023/08/26 08:23:36;;;;;;;10.80;9.40;;;17.30;99.90;;;;;;4958085;28;19918;-75
2023/08/26 08:26:01;;;;;;;8.32;7.43;;;17.50;99.90;;;;;;4950525;28;20121;-75
2023/08/26 08:28:27;;;;;;;;;;;17.60;99.90;;;;;;4984503;28;20442;-75
2023/08/26 08:30:52;;;;;;;9.13;8.23;;;17.80;99.90;;;;;;4967012;28;19918;-74
2023/08/26 08:33:18;;;;;;;;;;;17.90;99.90;;;;;;4969159;28;20057;-74
2023/08/26 08:35:44;;;;;;;8.23;7.38;;;17.80;99.90;;;;;;5006241;28;20377;-74
2023/08/26 08:38:09;;;;;;;7.68;6.90;;;17.80;99.90;;;;;;4987490;28;20054;-74
2023/08/26 08:40:37;;;;;;;;;;;17.80;99.90;;;;;;4980457;28;20069;-75
2023/08/26 08:43:05;;;;;;;7.50;6.80;;;17.60;99.90;;;;;;4984146;28;20373;-74
2023/08/26 08:45:33;;;;;;;7.00;6.30;;;17.80;99.90;;;;;;4971976;28;20136;-74
2023/08/26 08:47:59;;;;;;;9.32;6.55;;;17.80;99.90;;;;;;4988924;28;20513;-75
2023/08/26 08:50:24;;;;;;;;;;;17.90;99.90;;;;;;4957402;28;20047;-75
2023/08/26 08:52:55;;;;;;;7.13;5.53;;;17.80;99.90;;;;;;4969989;28;19925;-75
2023/08/26 08:55:21;;;;;;;6.05;5.40;;;17.70;99.90;;;;;;4979247;28;20109;-75
2023/08/26 08:57:49;;;;;;;5.50;5.00;;;17.70;99.90;;;;;;4989767;28;20506;-76
2023/08/26 09:00:17;;;;;;;6.13;4.90;;;18.00;99.90;;;;;;4965942;28;20073;-75
2023/08/26 09:02:46;;;;;;;7.75;5.10;;;18.40;99.90;;;;;;4971531;28;20039;-75
2023/08/26 09:05:14;;;;;;;5.63;5.03;;;18.60;99.90;;;;;;4971490;28;20054;-76
2023/08/26 09:07:41;;;;;;;6.00;5.22;;;19.00;99.90;;;;;;4970437;28;20047;-74
2023/08/26 09:10:12;;;;;;;7.82;7.03;;;19.20;99.90;;;;;;4995921;28;20051;-75
2023/08/26 09:12:39;;;;;;;6.97;6.22;;;19.20;99.90;;;;;;4967131;28;20386;-74
2023/08/26 09:15:06;;;;;;;6.28;5.68;;;19.40;99.90;;;;;;4947928;28;20058;-75
2023/08/26 09:17:33;;;;;;;5.40;4.90;;;19.40;34.80;;;;;;4968745;28;20057;-74
2023/08/26 09:20:00;;;;;;;6.57;5.13;;;19.50;99.90;;;;;;4963616;28;20379;-75
2023/08/26 09:22:31;;;;;;;5.30;4.80;;;19.70;99.90;;;;;;4971042;28;20134;-75
2023/08/26 09:24:58;;;;;;;5.00;4.50;;;19.90;99.90;;;;;;5003356;28;20039;-75
2023/08/26 09:27:24;;;;;;;5.90;5.30;;;19.90;99.90;;;;;;4968690;28;20043;-75
2023/08/26 09:29:51;;;;;;;6.10;5.50;;;19.90;99.90;;;;;;4985098;28;20053;-75
2023/08/26 09:32:34;;;;;;;6.03;4.82;;;19.80;99.90;;;;;;4967214;28;20554;-74
2023/08/26 09:35:14;;;;;;;5.10;3.97;;;19.80;1.00;;;;;;4981915;28;20354;-75
2023/08/26 09:37:48;;;;;;;5.22;4.53;;;20.10;1.00;;;;;;4965248;28;20047;-75
2023/08/26 09:40:15;;;;;;;5.80;4.78;;;20.10;99.90;;;;;;4970545;28;20042;-75
2023/08/26 09:42:41;;;;;;;6.50;4.95;;;20.30;1.00;;;;;;4972592;28;20047;-75
2023/08/26 09:45:09;;;;;;;5.78;4.78;;;20.20;99.30;;;;;;5000919;28;20508;-75
2023/08/26 09:47:36;;;;;;;5.30;4.22;;;20.00;99.90;;;;;;4981710;28;20717;-75
2023/08/26 09:50:03;;;;;;;6.70;4.72;;;19.90;99.90;;;;;;4954558;28;20062;-75
2023/08/26 09:52:29;;;;;;;6.65;4.82;;;20.00;82.40;;;;;;4970824;28;20078;-75
2023/08/26 09:54:56;;;;;;;5.57;4.32;;;19.80;99.90;;;;;;4971509;28;20069;-75
2023/08/26 09:57:22;;;;;;;4.40;4.00;;;19.90;1.00;;;;;;4975451;28;20392;-75
2023/08/26 09:59:48;;;;;;;4.90;4.07;;;20.20;99.90;;;;;;4962007;28;20054;-74
2023/08/26 10:02:23;;;;;;;4.80;3.92;;;20.10;99.90;;;;;;4972427;28;20100;-74
2023/08/26 10:04:54;;;;;;;5.38;4.10;;;20.00;99.90;;;;;;4972202;28;20042;-74
2023/08/26 10:07:22;;;;;;;5.00;3.95;;;19.60;99.90;;;;;;4967542;28;20121;-75
2023/08/26 10:09:55;;;;;;;6.28;4.13;;;19.50;1.00;;;;;;4965784;28;20129;-75
2023/08/26 10:12:39;;;;;;;4.35;3.90;;;19.10;99.90;;;;;;4957211;28;20055;-75
2023/08/26 10:15:10;;;;;;;5.18;4.40;;;18.80;34.70;;;;;;4985612;28;20039;-75
2023/08/26 10:17:38;;;;;;;4.30;3.20;;;18.30;99.90;;;;;;4971585;28;20105;-75
2023/08/26 10:20:05;;;;;;;4.13;2.30;;;17.80;99.90;;;;;;4969008;28;20483;-75
2023/08/26 10:22:31;;;;;;;4.38;2.00;;;17.10;82.40;;;;;;4966160;28;20034;-74
2023/08/26 10:24:57;;;;;;;2.63;1.60;;;16.60;99.90;;;;;;4938517;28;20160;-76
2023/08/26 10:27:23;;;;;;;;;;;16.30;15.70;;;;;;4965758;28;20166;-77
2023/08/26 10:29:49;;;;;;;3.05;1.10;;;15.80;99.90;;;;;;4997914;28;19965;-77
2023/08/26 10:32:20;;;;;;;1.77;0.75;;;15.20;99.90;;;;;;4982289;28;20566;-79
2023/08/26 10:34:59;;;;;;;2.60;1.05;;;14.90;99.90;;;;;;4963153;28;20050;-80
2023/08/26 10:37:31;;;;;;;1.88;0.85;;;14.70;99.90;;;;;;4967964;28;20509;-80
2023/08/26 10:40:03;;;;;;;0.93;0.60;;;14.60;99.90;;;;;;4964946;28;20073;-78
2023/08/26 10:42:29;;;;;;;0.47;0.47;;;14.60;99.90;;;;;;4983053;28;20035;-75
2023/08/26 10:44:58;;;;;;;1.52;0.85;;;14.70;99.90;;;;;;4951939;28;20576;-74
2023/08/26 10:47:33;;;;;;;1.42;0.70;;;14.70;99.90;;;;;;4973593;28;20042;-75
2023/08/26 10:50:20;;;;;;;0.52;0.50;;;14.80;99.90;;;;;;4975930;28;20079;-75
2023/08/26 10:53:12;;;;;;;1.30;0.55;;;14.90;99.90;;;;;;4968044;28;20042;-75
2023/08/26 10:55:37;;;;;;;0.85;0.40;;;15.10;99.90;;;;;;4967976;28;20055;-76
2023/08/26 10:58:18;;;;;;;0.85;0.60;;;15.20;99.90;;;;;;4952180;28;20035;-76
2023/08/26 11:00:52;;;;;;;1.05;0.73;;;15.50;99.90;;;;;;4968812;28;20046;-76
2023/08/26 11:03:20;;;;;;;1.15;0.63;;;15.70;99.90;;;;;;4970285;28;20042;-76
2023/08/26 11:05:47;;;;;;;0.98;0.55;;;16.00;99.90;;;;;;4970922;28;20386;-76
2023/08/26 11:08:13;;;;;;;0.98;0.70;;;16.20;99.90;;;;;;4969090;28;20146;-76
2023/08/26 11:10:41;;;;;;;1.05;0.65;;;16.40;99.90;;;;;;4997792;28;20130;-76
2023/08/26 11:13:11;;;;;;;0.75;0.60;;;16.70;99.90;;;;;;4953107;28;20700;-76
2023/08/26 11:15:41;;;;;;;1.20;1.10;;;16.70;99.90;;;;;;4951473;28;20043;-77
2023/08/26 11:18:08;;;;;;;2.15;1.42;;;16.90;99.90;;;;;;4961599;28;20043;-75
2023/08/26 11:20:35;;;;;;;4.10;1.52;;;17.20;99.90;;;;;;4970132;28;20030;-76
2023/08/26 11:23:02;;;;;;;1.52;1.40;;;17.50;99.90;;;;;;4968444;28;20121;-76
2023/08/26 11:25:29;;;;;;;1.85;1.50;;;17.80;99.90;;;;;;4975469;28;20070;-76
2023/08/26 11:28:00;;;;;;;2.72;2.08;;;18.30;99.90;;;;;;4966189;28;20039;-76
2023/08/26 11:30:26;;;;;;;3.70;2.40;;;18.40;99.90;;;;;;4970508;28;20129;-76
2023/08/26 11:32:51;;;;;;;;;;;18.70;99.90;;;;;;4968369;28;20125;-76
2023/08/26 11:35:17;;;;;;;3.78;2.63;;;18.80;99.90;;;;;;4982255;28;19918;-76
2023/08/26 11:37:44;;;;;;;;;;;18.90;99.90;;;;;;4970203;28;20114;-75
2023/08/26 11:40:10;;;;;;;2.63;2.20;;;18.80;99.90;;;;;;4996749;28;19957;-76
2023/08/26 11:42:37;;;;;;;2.67;2.30;;;18.70;99.90;;;;;;4955291;28;20039;-75
2023/08/26 11:45:08;;;;;;;3.90;2.70;;;18.90;99.90;;;;;;4969745;28;20050;-75
2023/08/26 11:47:33;;;;;;;6.30;3.92;;;19.00;99.90;;;;;;5000718;28;20125;-75
2023/08/26 11:49:59;;;;;;;;;;;18.70;99.90;;;;;;4967400;28;20454;-76
2023/08/26 11:52:36;;;;;;;4.18;3.40;;;18.50;99.90;;;;;;4978098;28;19957;-75
2023/08/26 11:55:03;;;;;;;4.63;3.03;;;18.30;99.90;;;;;;4950470;28;20125;-76
2023/08/26 11:57:31;;;;;;;3.67;3.10;;;18.20;99.90;;;;;;4979052;28;20042;-75
2023/08/26 12:00:16;;;;;;;3.92;3.53;;;18.00;99.90;;;;;;4965139;28;20569;-75
2023/08/26 12:02:48;;;;;;;4.07;3.17;;;17.90;99.90;;;;;;4994909;28;20043;-76
2023/08/26 12:05:15;;;;;;;3.42;2.58;;;17.90;99.90;;;;;;4965649;28;20039;-76
2023/08/26 12:07:49;;;;;;;2.90;2.60;;;17.80;99.90;;;;;;4985565;28;20590;-77
2023/08/26 12:10:19;;;;;;;3.08;2.60;;;17.80;99.90;;;;;;4963499;28;20929;-76
2023/08/26 12:12:47;;;;;;;2.92;2.67;;;17.80;99.90;;;;;;4968123;28;20054;-76
2023/08/26 12:15:22;;;;;;;3.35;2.58;;;18.00;99.90;;;;;;4960564;28;20043;-77
2023/08/26 12:17:49;;;;;;;4.55;3.25;;;18.50;99.90;;;;;;4956581;28;20082;-76
2023/08/26 12:20:28;;;;;;;3.22;2.83;;;18.90;99.90;;;;;;4944769;28;20055;-76
2023/08/26 12:22:58;;;;;;;4.32;3.60;;;19.60;99.90;;;;;;4967476;28;20051;-77
2023/08/26 12:25:28;;;;;;;4.15;3.40;;;19.70;99.90;;;;;;4959512;28;20105;-77
2023/08/26 12:28:09;;;;;;;2.85;2.65;;;19.70;1.00;;;;;;4962766;28;20034;-77
2023/08/26 12:30:38;;;;;;;2.95;2.72;;;19.70;1.00;;;;;;4962100;28;20035;-76
2023/08/26 12:33:05;;;;;;;3.10;2.40;;;19.60;97.70;;;;;;4981060;28;20034;-76
2023/08/26 12:35:31;;;;;;;3.03;2.30;;;20.00;99.90;;;;;;4961806;28;20043;-76
2023/08/26 12:37:58;;;;;;;3.00;2.25;;;20.30;34.90;;;;;;4950482;28;20126;-76
2023/08/26 12:40:24;;;;;;;2.08;1.60;;;20.70;26.30;;;;;;4969897;28;20047;-76
2023/08/26 12:42:49;;;;;;;1.85;1.23;;;20.70;1.00;;;;;;4964312;28;20118;-76
2023/08/26 12:45:15;;;;;;;;;;;20.80;99.90;;;;;;4999618;28;20045;-76
2023/08/26 12:47:41;;;;;;;2.47;1.10;;;20.90;99.90;;;;;;4966470;28;19970;-76
2023/08/26 12:50:07;;;;;;;;;;;21.10;99.90;;;;;;4951831;28;20058;-75
2023/08/26 12:52:33;;;;;;;2.87;1.00;;;20.90;99.90;;;;;;4985672;28;19924;-76